This is the latest recevied weather packets stored in our database for station/object KO4RJX-10. If no packets are shown the sender has not sent any weather packets the latest 10 day(s).
| Time | Temp. | Humidity | Pressure | Rain* | Wind** | Luminosity | Snow |
|---|---|---|---|---|---|---|---|
| 1777232583 | 14.44° C | 78% | 1008.8 hPa | 4.83 mm | - | - | - |
| 1777232183 | 14.44° C | 77% | 1008.5 hPa | 4.83 mm | - | - | - |
| 1777231517 | 14.44° C | 75% | 1008.5 hPa | 4.83 mm | - | - | - |
| 1777231118 | 14.44° C | 78% | 1008.5 hPa | 4.83 mm | - | - | - |
| 1777229784 | 13.33° C | 85% | 1008.5 hPa | 4.83 mm | - | - | - |
| 1777224583 | 13.33° C | 87% | 1008.5 hPa | 4.83 mm | - | - | - |
| 1777223783 | 13.89° C | 84% | 1008.5 hPa | 4.83 mm | - | - | - |
| 1777220983 | 13.89° C | 86% | 1007.8 hPa | 4.83 mm | - | - | - |
| 1777219383 | 13.89° C | 93% | 1007.8 hPa | 4.83 mm | - | - | - |
| 1777217783 | 13.89° C | 94% | 1007.5 hPa | 4.83 mm | - | - | - |
| 1777215783 | 14.44° C | 90% | 1007.5 hPa | 4.83 mm | - | - | - |
| 1777214583 | 13.89° C | 91% | 1007.1 hPa | 4.83 mm | - | - | - |
| 1777212583 | 14.44° C | 93% | 1006.8 hPa | 4.83 mm | - | - | - |
| 1777210583 | 17.22° C | 85% | 1006.1 hPa | 4.83 mm | - | - | - |
| 1777209517 | 17.78° C | 92% | 1005.8 hPa | 4.83 mm | - | - | - |
| 1777207383 | 17.22° C | 99% | 1005.8 hPa | 4.83 mm | - | - | - |
| 1777206716 | 17.22° C | 99% | 1005.8 hPa | 4.83 mm | - | - | - |
| 1777205783 | 17.22° C | 99% | 1005.8 hPa | 4.83 mm | - | - | - |
| 1777205383 | 17.22° C | 100% | 1005.4 hPa | 4.83 mm | - | - | - |
| 1777202983 | 17.22° C | 100% | 1005.1 hPa | 4.83 mm | - | - | - |
| 1777202583 | 17.22° C | 100% | 1005.1 hPa | 4.83 mm | - | - | - |
| 1777200183 | 16.67° C | 100% | 1004.4 hPa | 4.83 mm | - | - | - |
| 1777199383 | 16.67° C | 100% | 1004.1 hPa | 4.83 mm | - | - | - |
| 1777198584 | 16.67° C | 100% | 1004.1 hPa | 4.83 mm | - | - | - |
| 1777198183 | 16.67° C | 100% | 1004.1 hPa | 4.83 mm | - | - | - |
* Rain since midnight (hover to see other rain measurements)
** Current wind speed in m/s (hover to see current wind gust speed)